Anthem Of The Seas — C6BI7 — position and weather

sailwx.info

Track history (hours):
 
Tides and Currents Weather Stations Pressure Air Temp Water Temp Dewpoint Dewpoint Depression Visibility Wind Speed Wind Dir Waves Ship Positions

Anthem Of The Seas

Last reported at 2019-Jan-20 08:00 UTC. Time now 2019-Jan-23 18:18 UTC.
Position N 30°12' W 078°48'.

Length 348 m; draft 8.8 m.

Type: Passenger vessel. MMSI: 311000274.

Wind from 200 at 47 knots

Barometer 1006.8 mb
Air temperature 25.0 ° C
Visibility: greater than 10.8 NM
Water temperature 25.0 ° C

Date/timePositionNaut miles runAvg speedWind from/ knotsBaromVisibWave heightAir tempDewpointWater temp
2019-Jan-20 08:00N 30°12' W 078°48'45819.8 200 / 471006.810.8 25.0 25.0
2019-Jan-19 08:50N 37°00' W 074°39'14922.9
2019-Jan-19 02:19N 39°26' W 073°55'722.2
2019-Jan-19 02:00N 39°32' W 073°53'1122.2
2019-Jan-19 01:30N 39°43' W 073°52'1122.2
2019-Jan-19 01:00N 39°54' W 073°51'3213.8
2019-Jan-18 22:43N 40°26' W 073°49'2 9.3
2019-Jan-18 22:29N 40°27' W 073°51'510.2
2019-Jan-18 21:58N 40°30' W 073°57'815.8
2019-Jan-18 21:29N 40°36' W 074°03'4 8.3
2019-Jan-18 21:01N 40°40' W 074°04'0 0.0
2019-Jan-18 20:20N 40°40' W 074°04'0 0.0
2019-Jan-18 19:56N 40°40' W 074°04'0 0.0
2019-Jan-18 19:26N 40°40' W 074°04'0 0.0
2019-Jan-18 18:50N 40°40' W 074°04'0 0.0
2019-Jan-18 14:56N 40°40' W 074°04'0 0.0
2019-Jan-18 14:02N 40°40' W 074°04'0 0.0
2019-Jan-18 14:00N 40°40' W 074°04'2 2.9
2019-Jan-18 13:27N 40°38' W 074°03'815.3
2019-Jan-18 12:56N 40°31' W 073°60'611.8
2019-Jan-18 12:24N 40°28' W 073°52'4 9.7
2019-Jan-18 11:59N 40°26' W 073°47'510.1
2019-Jan-18 11:29N 40°23' W 073°42'510.4
2019-Jan-18 10:59N 40°20' W 073°36'86616.7
2019-Jan-16 07:00N 27°00' W 067°00'46319.3 070 / 91017.010.8 22.018.526.0
2019-Jan-15 07:00N 19°48' W 064°00'10318.5 070 / 151017.210.8 25.019.027.0
2019-Jan-15 01:25N 18°11' W 063°21'920.8
2019-Jan-15 00:59N 18°03' W 063°18'1020.5
2019-Jan-15 00:30N 17°54' W 063°14'1120.5
2019-Jan-14 23:59N 17°44' W 063°10'1320.2
2019-Jan-14 23:21N 17°32' W 063°05'719.8
2019-Jan-14 23:00N 17°26' W 063°01'1620.1
2019-Jan-14 22:13N 17°17' W 062°48'6 0.7
2019-Jan-14 13:02N 17°13' W 062°43'316.9
2019-Jan-14 12:50N 17°09' W 062°42'1217.4
2019-Jan-14 12:08N 16°58' W 062°38'217.5
2019-Jan-14 12:00N 16°56' W 062°37'1217.8
2019-Jan-14 11:21N 16°45' W 062°32'1619.0
2019-Jan-14 10:29N 16°31' W 062°24'9120.3
2019-Jan-14 06:00N 15°12' W 061°36'5216.9 050 / 171016.110.8 25.020.327.0
2019-Jan-14 02:54N 14°27' W 061°08'719.1
2019-Jan-14 02:30N 14°21' W 061°03'1019.5
2019-Jan-14 02:00N 14°15' W 060°56'1219.6
2019-Jan-14 01:24N 14°07' W 060°47'819.3
2019-Jan-14 00:59N 14°01' W 060°41'12 0.5
2019-Jan-13 00:31N 14°09' W 060°50'0 9.7
2019-Jan-13 00:30N 14°09' W 060°50'5 9.8
2019-Jan-13 00:00N 14°12' W 060°54'5 9.3
2019-Jan-12 23:30N 14°12' W 060°59'4 8.9
2019-Jan-12 23:00N 14°10' W 061°03'4 8.9
2019-Jan-12 22:30N 14°05' W 061°03'5 9.5
2019-Jan-12 21:56N 14°01' W 060°60'0 0.2
2019-Jan-12 21:30N 14°01' W 060°60'0 0.0
2019-Jan-12 21:00N 14°01' W 060°60'0 0.0
2019-Jan-12 20:24N 14°01' W 060°60'0 0.0
2019-Jan-12 20:00N 14°01' W 060°60'0 0.0
2019-Jan-12 19:30N 14°01' W 060°60'0 0.0
2019-Jan-12 18:57N 14°01' W 060°60'0 0.0
2019-Jan-12 18:18N 14°01' W 060°60'0 0.0
2019-Jan-12 18:00N 14°01' W 060°60'0 0.0
2019-Jan-12 17:21N 14°01' W 060°60'0 0.0
2019-Jan-12 17:00N 14°01' W 060°60'0 0.0
2019-Jan-12 16:27N 14°01' W 060°60'0 0.0
2019-Jan-12 16:00N 14°01' W 060°60'0 0.0
2019-Jan-12 15:27N 14°01' W 060°60'0 0.0
2019-Jan-12 15:00N 14°01' W 060°60'0 0.0
2019-Jan-12 14:30N 14°01' W 060°60'0 0.0
2019-Jan-12 13:54N 14°01' W 060°60'0 0.0
2019-Jan-12 13:30N 14°01' W 060°60'0 0.0
2019-Jan-12 13:00N 14°01' W 060°60'0 0.0
2019-Jan-12 12:30N 14°01' W 060°60'0 0.0
2019-Jan-12 12:00N 14°01' W 060°60'0 0.0
2019-Jan-12 11:30N 14°01' W 060°60'0 0.0
2019-Jan-12 11:00N 14°01' W 060°60'1 2.6
2019-Jan-12 10:30N 14°01' W 061°01'510.4
2019-Jan-12 10:00N 14°06' W 061°04'612.3
2019-Jan-12 09:30N 14°11' W 061°07'612.3
2019-Jan-12 09:00N 14°16' W 061°10'816.0
2019-Jan-12 08:30N 14°23' W 061°14'1017.2
2019-Jan-12 07:57N 14°32' W 061°18'217 7.1
2019-Jan-11 01:38N 17°48' W 062°55'2 8.1
2019-Jan-11 01:23N 17°49' W 062°57'3 7.9
2019-Jan-11 00:59N 17°50' W 062°60'4 7.8
2019-Jan-11 00:29N 17°52' W 063°03'8 6.9
2019-Jan-10 23:18N 17°60' W 063°05'2 6.2
2019-Jan-10 23:00N 18°00' W 063°03'1 1.0
2019-Jan-10 22:25N 18°01' W 063°03'0 0.0
2019-Jan-10 21:55N 18°01' W 063°03'0 0.0
2019-Jan-10 21:22N 18°01' W 063°03'0 0.0
2019-Jan-10 20:55N 18°01' W 063°03'0 0.0
2019-Jan-10 20:28N 18°01' W 063°03'0 0.0
2019-Jan-10 19:58N 18°01' W 063°03'0 0.0
2019-Jan-10 19:28N 18°01' W 063°03'0 0.0
2019-Jan-10 18:58N 18°01' W 063°03'0 0.0
2019-Jan-10 18:28N 18°01' W 063°03'0 0.0
2019-Jan-10 17:58N 18°01' W 063°03'0 0.0
2019-Jan-10 17:25N 18°01' W 063°03'0 0.0
2019-Jan-10 16:59N 18°01' W 063°03'0 0.0
2019-Jan-10 16:29N 18°01' W 063°03'0 0.0
2019-Jan-10 15:58N 18°01' W 063°03'0 0.0
2019-Jan-10 15:19N 18°01' W 063°03'0 0.0
2019-Jan-10 14:46N 18°01' W 063°03'0 0.0
2019-Jan-10 14:19N 18°01' W 063°03'1 1.9
2019-Jan-10 13:54N 18°00' W 063°03'912.9
2019-Jan-10 13:12N 18°01' W 063°13'516.5
2019-Jan-10 12:54N 18°01' W 063°18'716.2
2019-Jan-10 12:27N 18°03' W 063°26'816.7
2019-Jan-10 11:57N 18°03' W 063°34'916.9
2019-Jan-10 11:25N 18°04' W 063°44'2917.1
2019-Jan-10 09:44N 18°08' W 064°14'1117.2
2019-Jan-10 09:06N 18°09' W 064°25'316.8
2019-Jan-10 08:54N 18°09' W 064°29'  
Track history (hours):
 
Tides and Currents Weather Stations Pressure Air Temp Water Temp Dewpoint Dewpoint Depression Visibility Wind Speed Wind Dir Waves Ship Positions

Anthem Of The Seas

Last reported at 2019-Jan-20 08:00 UTC. Time now 2019-Jan-23 18:18 UTC.
Position N 30°12' W 078°48'.

Length 348 m; draft 8.8 m.

Type: Passenger vessel. MMSI: 311000274.

Wind from 200 at 47 knots

Barometer 1006.8 mb
Air temperature 25.0 ° C
Visibility: greater than 10.8 NM
Water temperature 25.0 ° C

Date/timePositionNaut miles runAvg speedWind from/ knotsBaromVisibWave heightAir tempDewpointWater temp
2019-Jan-20 08:00N 30°12' W 078°48'45819.8 200 / 471006.810.8 25.0 25.0
2019-Jan-19 08:50N 37°00' W 074°39'14922.9
2019-Jan-19 02:19N 39°26' W 073°55'722.2
2019-Jan-19 02:00N 39°32' W 073°53'1122.2
2019-Jan-19 01:30N 39°43' W 073°52'1122.2
2019-Jan-19 01:00N 39°54' W 073°51'3213.8
2019-Jan-18 22:43N 40°26' W 073°49'2 9.3
2019-Jan-18 22:29N 40°27' W 073°51'510.2
2019-Jan-18 21:58N 40°30' W 073°57'815.8
2019-Jan-18 21:29N 40°36' W 074°03'4 8.3
2019-Jan-18 21:01N 40°40' W 074°04'0 0.0
2019-Jan-18 20:20N 40°40' W 074°04'0 0.0
2019-Jan-18 19:56N 40°40' W 074°04'0 0.0
2019-Jan-18 19:26N 40°40' W 074°04'0 0.0
2019-Jan-18 18:50N 40°40' W 074°04'0 0.0
2019-Jan-18 14:56N 40°40' W 074°04'0 0.0
2019-Jan-18 14:02N 40°40' W 074°04'0 0.0
2019-Jan-18 14:00N 40°40' W 074°04'2 2.9
2019-Jan-18 13:27N 40°38' W 074°03'815.3
2019-Jan-18 12:56N 40°31' W 073°60'611.8
2019-Jan-18 12:24N 40°28' W 073°52'4 9.7
2019-Jan-18 11:59N 40°26' W 073°47'510.1
2019-Jan-18 11:29N 40°23' W 073°42'510.4
2019-Jan-18 10:59N 40°20' W 073°36'86616.7
2019-Jan-16 07:00N 27°00' W 067°00'46319.3 070 / 91017.010.8 22.018.526.0
2019-Jan-15 07:00N 19°48' W 064°00'10318.5 070 / 151017.210.8 25.019.027.0
2019-Jan-15 01:25N 18°11' W 063°21'920.8
2019-Jan-15 00:59N 18°03' W 063°18'1020.5
2019-Jan-15 00:30N 17°54' W 063°14'1120.5
2019-Jan-14 23:59N 17°44' W 063°10'1320.2
2019-Jan-14 23:21N 17°32' W 063°05'719.8
2019-Jan-14 23:00N 17°26' W 063°01'1620.1
2019-Jan-14 22:13N 17°17' W 062°48'6 0.7
2019-Jan-14 13:02N 17°13' W 062°43'316.9
2019-Jan-14 12:50N 17°09' W 062°42'1217.4
2019-Jan-14 12:08N 16°58' W 062°38'217.5
2019-Jan-14 12:00N 16°56' W 062°37'1217.8
2019-Jan-14 11:21N 16°45' W 062°32'1619.0
2019-Jan-14 10:29N 16°31' W 062°24'9120.3
2019-Jan-14 06:00N 15°12' W 061°36'5216.9 050 / 171016.110.8 25.020.327.0
2019-Jan-14 02:54N 14°27' W 061°08'719.1
2019-Jan-14 02:30N 14°21' W 061°03'1019.5
2019-Jan-14 02:00N 14°15' W 060°56'1219.6
2019-Jan-14 01:24N 14°07' W 060°47'819.3
2019-Jan-14 00:59N 14°01' W 060°41'12 0.5
2019-Jan-13 00:31N 14°09' W 060°50'0 9.7
2019-Jan-13 00:30N 14°09' W 060°50'5 9.8
2019-Jan-13 00:00N 14°12' W 060°54'5 9.3
2019-Jan-12 23:30N 14°12' W 060°59'4 8.9
2019-Jan-12 23:00N 14°10' W 061°03'4 8.9
2019-Jan-12 22:30N 14°05' W 061°03'5 9.5
2019-Jan-12 21:56N 14°01' W 060°60'0 0.2
2019-Jan-12 21:30N 14°01' W 060°60'0 0.0
2019-Jan-12 21:00N 14°01' W 060°60'0 0.0
2019-Jan-12 20:24N 14°01' W 060°60'0 0.0
2019-Jan-12 20:00N 14°01' W 060°60'0 0.0
2019-Jan-12 19:30N 14°01' W 060°60'0 0.0
2019-Jan-12 18:57N 14°01' W 060°60'0 0.0
2019-Jan-12 18:18N 14°01' W 060°60'0 0.0
2019-Jan-12 18:00N 14°01' W 060°60'0 0.0
2019-Jan-12 17:21N 14°01' W 060°60'0 0.0
2019-Jan-12 17:00N 14°01' W 060°60'0 0.0
2019-Jan-12 16:27N 14°01' W 060°60'0 0.0
2019-Jan-12 16:00N 14°01' W 060°60'0 0.0
2019-Jan-12 15:27N 14°01' W 060°60'0 0.0
2019-Jan-12 15:00N 14°01' W 060°60'0 0.0
2019-Jan-12 14:30N 14°01' W 060°60'0 0.0
2019-Jan-12 13:54N 14°01' W 060°60'0 0.0
2019-Jan-12 13:30N 14°01' W 060°60'0 0.0
2019-Jan-12 13:00N 14°01' W 060°60'0 0.0
2019-Jan-12 12:30N 14°01' W 060°60'0 0.0
2019-Jan-12 12:00N 14°01' W 060°60'0 0.0
2019-Jan-12 11:30N 14°01' W 060°60'0 0.0
2019-Jan-12 11:00N 14°01' W 060°60'1 2.6
2019-Jan-12 10:30N 14°01' W 061°01'510.4
2019-Jan-12 10:00N 14°06' W 061°04'612.3
2019-Jan-12 09:30N 14°11' W 061°07'612.3
2019-Jan-12 09:00N 14°16' W 061°10'816.0
2019-Jan-12 08:30N 14°23' W 061°14'1017.2
2019-Jan-12 07:57N 14°32' W 061°18'217 7.1
2019-Jan-11 01:38N 17°48' W 062°55'2 8.1
2019-Jan-11 01:23N 17°49' W 062°57'3 7.9
2019-Jan-11 00:59N 17°50' W 062°60'4 7.8
2019-Jan-11 00:29N 17°52' W 063°03'8 6.9
2019-Jan-10 23:18N 17°60' W 063°05'2 6.2
2019-Jan-10 23:00N 18°00' W 063°03'1 1.0
2019-Jan-10 22:25N 18°01' W 063°03'0 0.0
2019-Jan-10 21:55N 18°01' W 063°03'0 0.0
2019-Jan-10 21:22N 18°01' W 063°03'0 0.0
2019-Jan-10 20:55N 18°01' W 063°03'0 0.0
2019-Jan-10 20:28N 18°01' W 063°03'0 0.0
2019-Jan-10 19:58N 18°01' W 063°03'0 0.0
2019-Jan-10 19:28N 18°01' W 063°03'0 0.0
2019-Jan-10 18:58N 18°01' W 063°03'0 0.0
2019-Jan-10 18:28N 18°01' W 063°03'0 0.0
2019-Jan-10 17:58N 18°01' W 063°03'0 0.0
2019-Jan-10 17:25N 18°01' W 063°03'0 0.0
2019-Jan-10 16:59N 18°01' W 063°03'0 0.0
2019-Jan-10 16:29N 18°01' W 063°03'0 0.0
2019-Jan-10 15:58N 18°01' W 063°03'0 0.0
2019-Jan-10 15:19N 18°01' W 063°03'0 0.0
2019-Jan-10 14:46N 18°01' W 063°03'0 0.0
2019-Jan-10 14:19N 18°01' W 063°03'1 1.9
2019-Jan-10 13:54N 18°00' W 063°03'912.9
2019-Jan-10 13:12N 18°01' W 063°13'516.5
2019-Jan-10 12:54N 18°01' W 063°18'716.2
2019-Jan-10 12:27N 18°03' W 063°26'816.7
2019-Jan-10 11:57N 18°03' W 063°34'916.9
2019-Jan-10 11:25N 18°04' W 063°44'2917.1
2019-Jan-10 09:44N 18°08' W 064°14'1117.2
2019-Jan-10 09:06N 18°09' W 064°25'316.8
2019-Jan-10 08:54N 18°09' W 064°29'  

Dump ship's entire track history